sensor_id;sensor_type;location;lat;lon;timestamp;temperature;humidity
11132;DHT22;5620;53.570;9.718;2022-11-20T00:00:17;3.90;42.10
11132;DHT22;5620;53.570;9.718;2022-11-20T00:02:44;3.90;49.80
11132;DHT22;5620;53.570;9.718;2022-11-20T00:05:09;3.90;49.60
11132;DHT22;5620;53.570;9.718;2022-11-20T00:07:35;3.90;41.10
11132;DHT22;5620;53.570;9.718;2022-11-20T00:10:01;3.90;38.60
11132;DHT22;5620;53.570;9.718;2022-11-20T00:12:27;3.80;36.70
11132;DHT22;5620;53.570;9.718;2022-11-20T00:14:53;3.80;40.40
11132;DHT22;5620;53.570;9.718;2022-11-20T00:17:19;3.80;41.90
11132;DHT22;5620;53.570;9.718;2022-11-20T00:19:46;3.80;45.90
11132;DHT22;5620;53.570;9.718;2022-11-20T00:22:12;3.80;51.00
11132;DHT22;5620;53.570;9.718;2022-11-20T00:24:40;3.80;53.10
11132;DHT22;5620;53.570;9.718;2022-11-20T00:27:05;3.80;55.40
11132;DHT22;5620;53.570;9.718;2022-11-20T00:29:31;3.80;55.70
11132;DHT22;5620;53.570;9.718;2022-11-20T00:31:58;3.90;56.40
11132;DHT22;5620;53.570;9.718;2022-11-20T00:34:23;3.90;55.50
11132;DHT22;5620;53.570;9.718;2022-11-20T00:36:50;3.80;55.30
11132;DHT22;5620;53.570;9.718;2022-11-20T00:39:19;3.80;55.20
11132;DHT22;5620;53.570;9.718;2022-11-20T00:41:47;3.80;55.60
11132;DHT22;5620;53.570;9.718;2022-11-20T00:44:16;3.80;56.30
11132;DHT22;5620;53.570;9.718;2022-11-20T00:46:42;3.80;59.00
11132;DHT22;5620;53.570;9.718;2022-11-20T00:49:10;3.90;66.50
11132;DHT22;5620;53.570;9.718;2022-11-20T00:51:36;3.90;69.90
11132;DHT22;5620;53.570;9.718;2022-11-20T00:54:03;3.90;68.30
11132;DHT22;5620;53.570;9.718;2022-11-20T00:56:29;3.80;71.90
11132;DHT22;5620;53.570;9.718;2022-11-20T00:58:55;3.90;78.00
11132;DHT22;5620;53.570;9.718;2022-11-20T01:01:22;3.90;79.30
11132;DHT22;5620;53.570;9.718;2022-11-20T01:03:51;4.00;80.20
11132;DHT22;5620;53.570;9.718;2022-11-20T01:06:32;4.00;88.70
11132;DHT22;5620;53.570;9.718;2022-11-20T01:09:00;4.00;75.90
11132;DHT22;5620;53.570;9.718;2022-11-20T01:11:30;4.00;77.00
11132;DHT22;5620;53.570;9.718;2022-11-20T01:13:59;4.00;79.00
11132;DHT22;5620;53.570;9.718;2022-11-20T01:16:33;4.00;76.30
11132;DHT22;5620;53.570;9.718;2022-11-20T01:19:01;4.00;71.10
11132;DHT22;5620;53.570;9.718;2022-11-20T01:21:31;4.00;73.70
11132;DHT22;5620;53.570;9.718;2022-11-20T01:24:01;3.90;77.00
11132;DHT22;5620;53.570;9.718;2022-11-20T01:26:31;3.90;77.70
11132;DHT22;5620;53.570;9.718;2022-11-20T01:28:59;3.90;81.50
11132;DHT22;5620;53.570;9.718;2022-11-20T01:31:31;3.90;81.60
11132;DHT22;5620;53.570;9.718;2022-11-20T01:34:04;3.90;79.90
11132;DHT22;5620;53.570;9.718;2022-11-20T01:36:32;3.90;80.30
11132;DHT22;5620;53.570;9.718;2022-11-20T01:39:02;4.00;81.20
11132;DHT22;5620;53.570;9.718;2022-11-20T01:41:30;3.90;81.20
11132;DHT22;5620;53.570;9.718;2022-11-20T01:43:58;3.90;82.90
11132;DHT22;5620;53.570;9.718;2022-11-20T01:46:24;3.90;81.40
11132;DHT22;5620;53.570;9.718;2022-11-20T01:52:32;3.90;87.20
11132;DHT22;5620;53.570;9.718;2022-11-20T01:57:34;4.00;85.30
11132;DHT22;5620;53.570;9.718;2022-11-20T02:00:08;4.00;84.40
11132;DHT22;5620;53.570;9.718;2022-11-20T02:02:37;4.00;85.40
11132;DHT22;5620;53.570;9.718;2022-11-20T02:08:09;4.10;87.60
11132;DHT22;5620;53.570;9.718;2022-11-20T02:10:37;4.00;82.30
11132;DHT22;5620;53.570;9.718;2022-11-20T02:13:04;4.00;84.90
11132;DHT22;5620;53.570;9.718;2022-11-20T02:15:33;4.00;86.40
11132;DHT22;5620;53.570;9.718;2022-11-20T02:18:00;4.00;89.70
11132;DHT22;5620;53.570;9.718;2022-11-20T02:20:27;4.00;91.50
11132;DHT22;5620;53.570;9.718;2022-11-20T02:25:49;4.00;92.60
11132;DHT22;5620;53.570;9.718;2022-11-20T02:28:18;4.00;92.40
11132;DHT22;5620;53.570;9.718;2022-11-20T02:30:47;4.00;91.50
11132;DHT22;5620;53.570;9.718;2022-11-20T02:33:15;4.00;91.30
11132;DHT22;5620;53.570;9.718;2022-11-20T02:35:45;3.90;91.30
11132;DHT22;5620;53.570;9.718;2022-11-20T02:38:16;4.00;93.70
11132;DHT22;5620;53.570;9.718;2022-11-20T02:40:43;3.90;93.30
11132;DHT22;5620;53.570;9.718;2022-11-20T02:43:11;3.90;92.70
11132;DHT22;5620;53.570;9.718;2022-11-20T02:45:37;3.90;93.60
11132;DHT22;5620;53.570;9.718;2022-11-20T02:48:05;3.90;94.00
11132;DHT22;5620;53.570;9.718;2022-11-20T02:50:32;3.80;94.20
11132;DHT22;5620;53.570;9.718;2022-11-20T02:52:59;3.80;94.00
11132;DHT22;5620;53.570;9.718;2022-11-20T02:55:24;3.70;96.00
11132;DHT22;5620;53.570;9.718;2022-11-20T02:57:50;3.70;96.60
11132;DHT22;5620;53.570;9.718;2022-11-20T03:00:17;3.70;96.90
11132;DHT22;5620;53.570;9.718;2022-11-20T03:02:44;3.70;98.20
11132;DHT22;5620;53.570;9.718;2022-11-20T03:05:10;3.70;99.30
11132;DHT22;5620;53.570;9.718;2022-11-20T03:07:39;3.70;99.90
11132;DHT22;5620;53.570;9.718;2022-11-20T03:10:05;3.70;99.90
11132;DHT22;5620;53.570;9.718;2022-11-20T03:12:32;3.70;99.90
11132;DHT22;5620;53.570;9.718;2022-11-20T03:14:58;3.70;99.90
11132;DHT22;5620;53.570;9.718;2022-11-20T03:17:26;3.70;99.90
11132;DHT22;5620;53.570;9.718;2022-11-20T03:19:52;3.70;99.90
11132;DHT22;5620;53.570;9.718;2022-11-20T03:22:20;3.70;99.90
11132;DHT22;5620;53.570;9.718;2022-11-20T03:24:46;3.70;99.90
11132;DHT22;5620;53.570;9.718;2022-11-20T03:27:11;3.70;99.90
11132;DHT22;5620;53.570;9.718;2022-11-20T03:29:39;3.70;99.90
11132;DHT22;5620;53.570;9.718;2022-11-20T03:32:07;3.70;99.90
11132;DHT22;5620;53.570;9.718;2022-11-20T03:34:33;3.70;99.90
11132;DHT22;5620;53.570;9.718;2022-11-20T03:36:58;3.70;99.90
11132;DHT22;5620;53.570;9.718;2022-11-20T03:39:25;3.70;99.90
11132;DHT22;5620;53.570;9.718;2022-11-20T03:41:51;3.70;99.90
11132;DHT22;5620;53.570;9.718;2022-11-20T03:44:17;3.70;99.90
11132;DHT22;5620;53.570;9.718;2022-11-20T03:46:42;3.60;99.90
11132;DHT22;5620;53.570;9.718;2022-11-20T03:49:09;3.60;99.90
11132;DHT22;5620;53.570;9.718;2022-11-20T03:51:37;3.60;99.90
11132;DHT22;5620;53.570;9.718;2022-11-20T03:54:07;3.60;99.90
11132;DHT22;5620;53.570;9.718;2022-11-20T03:56:44;3.60;99.90
11132;DHT22;5620;53.570;9.718;2022-11-20T03:59:12;3.60;99.90
11132;DHT22;5620;53.570;9.718;2022-11-20T04:01:39;3.60;99.90
11132;DHT22;5620;53.570;9.718;2022-11-20T04:04:08;3.50;99.90
11132;DHT22;5620;53.570;9.718;2022-11-20T04:06:37;3.50;99.90
11132;DHT22;5620;53.570;9.718;2022-11-20T04:09:02;3.50;99.90
11132;DHT22;5620;53.570;9.718;2022-11-20T04:11:33;3.50;99.90
11132;DHT22;5620;53.570;9.718;2022-11-20T04:14:04;3.50;99.90
11132;DHT22;5620;53.570;9.718;2022-11-20T04:16:34;3.50;99.90
11132;DHT22;5620;53.570;9.718;2022-11-20T04:19:18;3.50;99.90
11132;DHT22;5620;53.570;9.718;2022-11-20T04:21:45;3.50;99.90
11132;DHT22;5620;53.570;9.718;2022-11-20T04:24:11;3.50;99.90
11132;DHT22;5620;53.570;9.718;2022-11-20T04:26:37;3.50;99.90
11132;DHT22;5620;53.570;9.718;2022-11-20T04:29:05;3.50;99.90
11132;DHT22;5620;53.570;9.718;2022-11-20T04:31:33;3.50;99.90
11132;DHT22;5620;53.570;9.718;2022-11-20T04:34:03;3.50;99.90
11132;DHT22;5620;53.570;9.718;2022-11-20T04:36:32;3.50;99.90
11132;DHT22;5620;53.570;9.718;2022-11-20T04:39:11;3.40;99.90
11132;DHT22;5620;53.570;9.718;2022-11-20T04:41:38;3.40;99.90
11132;DHT22;5620;53.570;9.718;2022-11-20T04:44:05;3.50;99.90
11132;DHT22;5620;53.570;9.718;2022-11-20T04:46:34;3.50;99.90
11132;DHT22;5620;53.570;9.718;2022-11-20T04:49:00;3.50;99.90
11132;DHT22;5620;53.570;9.718;2022-11-20T04:51:27;3.60;99.90
11132;DHT22;5620;53.570;9.718;2022-11-20T04:53:53;3.60;99.90
11132;DHT22;5620;53.570;9.718;2022-11-20T04:56:18;3.60;99.90
11132;DHT22;5620;53.570;9.718;2022-11-20T04:58:44;3.60;99.90
11132;DHT22;5620;53.570;9.718;2022-11-20T05:01:28;3.60;99.90
11132;DHT22;5620;53.570;9.718;2022-11-20T05:03:54;3.50;99.90
11132;DHT22;5620;53.570;9.718;2022-11-20T05:06:22;3.50;99.90
11132;DHT22;5620;53.570;9.718;2022-11-20T05:08:49;3.50;99.90
11132;DHT22;5620;53.570;9.718;2022-11-20T05:11:17;3.50;99.90
11132;DHT22;5620;53.570;9.718;2022-11-20T05:13:43;3.50;99.90
11132;DHT22;5620;53.570;9.718;2022-11-20T05:16:13;3.50;99.90
11132;DHT22;5620;53.570;9.718;2022-11-20T05:18:40;3.40;99.90
11132;DHT22;5620;53.570;9.718;2022-11-20T05:21:08;3.40;99.90
11132;DHT22;5620;53.570;9.718;2022-11-20T05:23:35;3.30;99.90
11132;DHT22;5620;53.570;9.718;2022-11-20T05:26:02;3.30;99.90
11132;DHT22;5620;53.570;9.718;2022-11-20T05:28:29;3.30;99.90
11132;DHT22;5620;53.570;9.718;2022-11-20T05:31:08;3.20;99.90
11132;DHT22;5620;53.570;9.718;2022-11-20T05:33:37;3.20;99.90
11132;DHT22;5620;53.570;9.718;2022-11-20T05:36:05;3.10;99.90
11132;DHT22;5620;53.570;9.718;2022-11-20T05:38:33;3.10;99.90
11132;DHT22;5620;53.570;9.718;2022-11-20T05:41:17;3.10;99.90
11132;DHT22;5620;53.570;9.718;2022-11-20T05:43:46;3.10;99.90
11132;DHT22;5620;53.570;9.718;2022-11-20T05:46:17;3.00;99.90
11132;DHT22;5620;53.570;9.718;2022-11-20T05:48:44;3.00;99.90
11132;DHT22;5620;53.570;9.718;2022-11-20T05:51:15;2.90;99.90
11132;DHT22;5620;53.570;9.718;2022-11-20T05:53:41;3.00;99.90
11132;DHT22;5620;53.570;9.718;2022-11-20T05:56:12;3.00;99.90
11132;DHT22;5620;53.570;9.718;2022-11-20T05:58:39;3.00;99.90
11132;DHT22;5620;53.570;9.718;2022-11-20T06:01:18;3.00;99.90
11132;DHT22;5620;53.570;9.718;2022-11-20T06:03:47;3.00;99.90
11132;DHT22;5620;53.570;9.718;2022-11-20T06:06:15;3.10;1.00
11132;DHT22;5620;53.570;9.718;2022-11-20T06:08:41;3.10;1.00
11132;DHT22;5620;53.570;9.718;2022-11-20T06:11:10;3.20;1.00
11132;DHT22;5620;53.570;9.718;2022-11-20T06:13:37;3.20;1.00
11132;DHT22;5620;53.570;9.718;2022-11-20T06:16:03;3.30;1.00
11132;DHT22;5620;53.570;9.718;2022-11-20T06:18:31;3.30;1.00
11132;DHT22;5620;53.570;9.718;2022-11-20T06:21:05;3.30;1.00
11132;DHT22;5620;53.570;9.718;2022-11-20T06:23:35;3.30;1.00
11132;DHT22;5620;53.570;9.718;2022-11-20T06:26:06;3.30;1.00
11132;DHT22;5620;53.570;9.718;2022-11-20T06:28:32;3.30;1.00
11132;DHT22;5620;53.570;9.718;2022-11-20T06:30:59;3.30;1.00
11132;DHT22;5620;53.570;9.718;2022-11-20T06:33:27;3.30;1.00
11132;DHT22;5620;53.570;9.718;2022-11-20T06:35:56;3.20;1.00
11132;DHT22;5620;53.570;9.718;2022-11-20T06:38:25;3.20;1.00
11132;DHT22;5620;53.570;9.718;2022-11-20T06:40:54;3.20;1.00
11132;DHT22;5620;53.570;9.718;2022-11-20T06:43:22;3.20;1.00
11132;DHT22;5620;53.570;9.718;2022-11-20T06:45:55;3.20;1.00
11132;DHT22;5620;53.570;9.718;2022-11-20T06:48:22;3.20;1.00
11132;DHT22;5620;53.570;9.718;2022-11-20T06:50:51;3.20;1.00
11132;DHT22;5620;53.570;9.718;2022-11-20T06:53:17;3.20;1.00
11132;DHT22;5620;53.570;9.718;2022-11-20T06:55:44;3.20;1.00
11132;DHT22;5620;53.570;9.718;2022-11-20T06:58:10;3.30;1.00
11132;DHT22;5620;53.570;9.718;2022-11-20T07:00:41;3.30;1.00
11132;DHT22;5620;53.570;9.718;2022-11-20T07:03:08;3.30;1.00
11132;DHT22;5620;53.570;9.718;2022-11-20T07:05:35;3.30;1.00
11132;DHT22;5620;53.570;9.718;2022-11-20T07:08:02;3.40;1.00
11132;DHT22;5620;53.570;9.718;2022-11-20T07:10:30;3.30;1.00
11132;DHT22;5620;53.570;9.718;2022-11-20T07:12:57;3.20;1.00
11132;DHT22;5620;53.570;9.718;2022-11-20T07:15:24;3.20;1.00
11132;DHT22;5620;53.570;9.718;2022-11-20T07:17:49;3.20;1.00
11132;DHT22;5620;53.570;9.718;2022-11-20T07:20:16;3.20;1.00
11132;DHT22;5620;53.570;9.718;2022-11-20T07:22:44;3.20;1.00
11132;DHT22;5620;53.570;9.718;2022-11-20T07:25:11;3.20;1.00
11132;DHT22;5620;53.570;9.718;2022-11-20T07:27:39;3.30;1.00
11132;DHT22;5620;53.570;9.718;2022-11-20T07:30:06;3.30;1.00
11132;DHT22;5620;53.570;9.718;2022-11-20T07:32:32;3.30;1.00
11132;DHT22;5620;53.570;9.718;2022-11-20T07:34:58;3.30;1.00
11132;DHT22;5620;53.570;9.718;2022-11-20T07:37:26;3.30;1.00
11132;DHT22;5620;53.570;9.718;2022-11-20T07:39:51;3.40;1.00
11132;DHT22;5620;53.570;9.718;2022-11-20T07:42:19;3.40;1.00
11132;DHT22;5620;53.570;9.718;2022-11-20T07:44:46;3.40;1.00
11132;DHT22;5620;53.570;9.718;2022-11-20T07:47:13;3.50;1.00
11132;DHT22;5620;53.570;9.718;2022-11-20T07:49:38;3.60;1.00
11132;DHT22;5620;53.570;9.718;2022-11-20T07:52:04;3.60;1.00
11132;DHT22;5620;53.570;9.718;2022-11-20T07:54:29;3.80;1.00
11132;DHT22;5620;53.570;9.718;2022-11-20T07:56:55;3.80;1.00
11132;DHT22;5620;53.570;9.718;2022-11-20T07:59:20;3.90;1.00
11132;DHT22;5620;53.570;9.718;2022-11-20T08:01:46;4.00;1.00
11132;DHT22;5620;53.570;9.718;2022-11-20T08:04:13;4.00;1.00
11132;DHT22;5620;53.570;9.718;2022-11-20T08:06:39;4.10;1.00
11132;DHT22;5620;53.570;9.718;2022-11-20T08:09:06;4.10;1.00
11132;DHT22;5620;53.570;9.718;2022-11-20T08:11:31;4.20;1.00
11132;DHT22;5620;53.570;9.718;2022-11-20T08:13:58;4.30;1.00
11132;DHT22;5620;53.570;9.718;2022-11-20T08:16:25;4.40;1.00
11132;DHT22;5620;53.570;9.718;2022-11-20T08:18:52;4.50;1.00
11132;DHT22;5620;53.570;9.718;2022-11-20T08:21:17;4.60;1.00
11132;DHT22;5620;53.570;9.718;2022-11-20T08:23:44;4.70;99.90
11132;DHT22;5620;53.570;9.718;2022-11-20T08:26:11;4.80;99.90
11132;DHT22;5620;53.570;9.718;2022-11-20T08:28:36;4.80;99.90
11132;DHT22;5620;53.570;9.718;2022-11-20T08:31:04;4.80;99.90
11132;DHT22;5620;53.570;9.718;2022-11-20T08:33:30;4.90;99.90
11132;DHT22;5620;53.570;9.718;2022-11-20T08:36:00;5.00;99.90
11132;DHT22;5620;53.570;9.718;2022-11-20T08:38:26;5.10;99.90
11132;DHT22;5620;53.570;9.718;2022-11-20T08:40:57;5.10;99.90
11132;DHT22;5620;53.570;9.718;2022-11-20T08:43:23;5.20;99.90
11132;DHT22;5620;53.570;9.718;2022-11-20T08:45:51;5.40;99.90
11132;DHT22;5620;53.570;9.718;2022-11-20T08:48:16;5.60;99.90
11132;DHT22;5620;53.570;9.718;2022-11-20T08:50:43;5.70;99.90
11132;DHT22;5620;53.570;9.718;2022-11-20T08:53:09;5.80;99.90
11132;DHT22;5620;53.570;9.718;2022-11-20T08:55:34;5.80;99.90
11132;DHT22;5620;53.570;9.718;2022-11-20T08:58:08;5.70;99.90
11132;DHT22;5620;53.570;9.718;2022-11-20T09:00:34;5.40;99.90
11132;DHT22;5620;53.570;9.718;2022-11-20T09:03:00;5.10;99.90
11132;DHT22;5620;53.570;9.718;2022-11-20T09:05:27;4.80;99.90
11132;DHT22;5620;53.570;9.718;2022-11-20T09:08:01;4.70;99.90
11132;DHT22;5620;53.570;9.718;2022-11-20T09:10:27;4.60;99.90
11132;DHT22;5620;53.570;9.718;2022-11-20T09:12:53;4.60;99.90
11132;DHT22;5620;53.570;9.718;2022-11-20T09:15:19;4.60;99.90
11132;DHT22;5620;53.570;9.718;2022-11-20T09:17:57;4.80;99.90
11132;DHT22;5620;53.570;9.718;2022-11-20T09:20:22;4.90;99.90
11132;DHT22;5620;53.570;9.718;2022-11-20T09:22:49;4.90;99.90
11132;DHT22;5620;53.570;9.718;2022-11-20T09:25:15;4.90;99.90
11132;DHT22;5620;53.570;9.718;2022-11-20T09:27:55;4.80;99.90
11132;DHT22;5620;53.570;9.718;2022-11-20T09:30:21;4.80;99.90
11132;DHT22;5620;53.570;9.718;2022-11-20T09:32:47;4.80;99.90
11132;DHT22;5620;53.570;9.718;2022-11-20T09:35:12;4.80;99.90
11132;DHT22;5620;53.570;9.718;2022-11-20T09:37:39;4.90;99.90
11132;DHT22;5620;53.570;9.718;2022-11-20T09:40:36;5.10;99.90
11132;DHT22;5620;53.570;9.718;2022-11-20T09:52:00;5.70;84.50
11132;DHT22;5620;53.570;9.718;2022-11-20T09:54:39;5.60;58.00
11132;DHT22;5620;53.570;9.718;2022-11-20T09:57:11;5.40;53.20
11132;DHT22;5620;53.570;9.718;2022-11-20T09:59:46;5.60;57.10
11132;DHT22;5620;53.570;9.718;2022-11-20T10:05:28;6.00;21.30
11132;DHT22;5620;53.570;9.718;2022-11-20T10:08:24;5.90;1.00
11132;DHT22;5620;53.570;9.718;2022-11-20T10:16:26;6.10;1.00
11132;DHT22;5620;53.570;9.718;2022-11-20T10:30:41;6.70;1.00
11132;DHT22;5620;53.570;9.718;2022-11-20T10:33:22;7.00;1.00
11132;DHT22;5620;53.570;9.718;2022-11-20T10:38:35;7.90;1.00
11132;DHT22;5620;53.570;9.718;2022-11-20T10:41:02;8.30;1.00
11132;DHT22;5620;53.570;9.718;2022-11-20T10:43:33;8.90;1.00
11132;DHT22;5620;53.570;9.718;2022-11-20T10:46:07;9.60;1.00
11132;DHT22;5620;53.570;9.718;2022-11-20T10:48:48;10.20;1.00
11132;DHT22;5620;53.570;9.718;2022-11-20T10:51:35;10.80;1.00
11132;DHT22;5620;53.570;9.718;2022-11-20T10:54:09;11.70;1.00
11132;DHT22;5620;53.570;9.718;2022-11-20T10:56:45;12.00;1.00
11132;DHT22;5620;53.570;9.718;2022-11-20T11:01:58;11.20;99.90
11132;DHT22;5620;53.570;9.718;2022-11-20T11:04:37;10.30;99.90
11132;DHT22;5620;53.570;9.718;2022-11-20T11:09:57;8.70;99.90
11132;DHT22;5620;53.570;9.718;2022-11-20T11:12:28;8.20;99.90
11132;DHT22;5620;53.570;9.718;2022-11-20T11:14:55;8.10;99.90
11132;DHT22;5620;53.570;9.718;2022-11-20T11:17:34;8.20;99.90
11132;DHT22;5620;53.570;9.718;2022-11-20T11:20:06;8.40;99.90
11132;DHT22;5620;53.570;9.718;2022-11-20T11:22:34;8.40;99.90
11132;DHT22;5620;53.570;9.718;2022-11-20T11:25:03;8.30;99.90
11132;DHT22;5620;53.570;9.718;2022-11-20T11:27:29;8.00;99.90
11132;DHT22;5620;53.570;9.718;2022-11-20T11:30:26;7.60;99.90
11132;DHT22;5620;53.570;9.718;2022-11-20T11:33:20;7.10;99.90
11132;DHT22;5620;53.570;9.718;2022-11-20T11:35:54;6.70;99.90
11132;DHT22;5620;53.570;9.718;2022-11-20T11:38:28;6.50;99.90
11132;DHT22;5620;53.570;9.718;2022-11-20T11:40:55;6.90;99.90
11132;DHT22;5620;53.570;9.718;2022-11-20T11:43:26;8.00;99.90
11132;DHT22;5620;53.570;9.718;2022-11-20T11:45:55;8.50;99.90
11132;DHT22;5620;53.570;9.718;2022-11-20T11:48:21;8.30;99.90
11132;DHT22;5620;53.570;9.718;2022-11-20T11:50:50;8.10;99.90
11132;DHT22;5620;53.570;9.718;2022-11-20T11:53:20;7.70;99.90
11132;DHT22;5620;53.570;9.718;2022-11-20T11:56:03;7.50;99.90
11132;DHT22;5620;53.570;9.718;2022-11-20T12:04:43;7.60;99.90
11132;DHT22;5620;53.570;9.718;2022-11-20T12:07:35;7.80;99.90
11132;DHT22;5620;53.570;9.718;2022-11-20T12:10:04;8.20;99.90
11132;DHT22;5620;53.570;9.718;2022-11-20T12:12:43;8.70;99.90
11132;DHT22;5620;53.570;9.718;2022-11-20T12:15:11;9.60;99.90
11132;DHT22;5620;53.570;9.718;2022-11-20T12:17:38;10.20;99.90
11132;DHT22;5620;53.570;9.718;2022-11-20T12:20:15;10.00;99.90
11132;DHT22;5620;53.570;9.718;2022-11-20T12:22:52;9.50;99.90
11132;DHT22;5620;53.570;9.718;2022-11-20T12:25:28;8.70;99.90
11132;DHT22;5620;53.570;9.718;2022-11-20T12:28:28;8.00;99.90
11132;DHT22;5620;53.570;9.718;2022-11-20T12:39:21;8.70;99.90
11132;DHT22;5620;53.570;9.718;2022-11-20T12:42:18;9.00;99.90
11132;DHT22;5620;53.570;9.718;2022-11-20T12:45:10;9.50;99.90
11132;DHT22;5620;53.570;9.718;2022-11-20T12:50:54;10.60;99.90
11132;DHT22;5620;53.570;9.718;2022-11-20T12:56:47;11.10;99.90
11132;DHT22;5620;53.570;9.718;2022-11-20T13:07:22;12.10;93.40
11132;DHT22;5620;53.570;9.718;2022-11-20T13:09:52;12.70;90.10
11132;DHT22;5620;53.570;9.718;2022-11-20T13:12:38;13.50;78.70
11132;DHT22;5620;53.570;9.718;2022-11-20T13:15:26;14.40;60.90
11132;DHT22;5620;53.570;9.718;2022-11-20T13:18:02;15.30;40.50
11132;DHT22;5620;53.570;9.718;2022-11-20T13:20:31;16.60;16.20
11132;DHT22;5620;53.570;9.718;2022-11-20T13:22:58;17.70;1.00
11132;DHT22;5620;53.570;9.718;2022-11-20T13:27:57;19.20;1.00
11132;DHT22;5620;53.570;9.718;2022-11-20T13:30:26;18.80;1.00
11132;DHT22;5620;53.570;9.718;2022-11-20T13:33:08;18.70;1.00
11132;DHT22;5620;53.570;9.718;2022-11-20T13:35:41;19.20;1.00
11132;DHT22;5620;53.570;9.718;2022-11-20T13:38:12;20.30;1.00
11132;DHT22;5620;53.570;9.718;2022-11-20T13:41:00;21.30;1.00
11132;DHT22;5620;53.570;9.718;2022-11-20T13:46:47;22.60;1.00
11132;DHT22;5620;53.570;9.718;2022-11-20T13:51:50;23.20;1.00
11132;DHT22;5620;53.570;9.718;2022-11-20T14:00:30;20.60;1.00
11132;DHT22;5620;53.570;9.718;2022-11-20T14:03:18;18.20;1.00
11132;DHT22;5620;53.570;9.718;2022-11-20T14:06:39;16.40;1.00
11132;DHT22;5620;53.570;9.718;2022-11-20T14:08:46;14.80;1.00
11132;DHT22;5620;53.570;9.718;2022-11-20T14:11:23;13.40;1.00
11132;DHT22;5620;53.570;9.718;2022-11-20T14:14:04;12.60;1.00
11132;DHT22;5620;53.570;9.718;2022-11-20T14:16:38;11.90;1.00
11132;DHT22;5620;53.570;9.718;2022-11-20T14:22:20;10.90;1.00
11132;DHT22;5620;53.570;9.718;2022-11-20T14:24:46;10.20;1.00
11132;DHT22;5620;53.570;9.718;2022-11-20T14:27:17;9.70;1.00
11132;DHT22;5620;53.570;9.718;2022-11-20T14:29:46;9.30;1.00
11132;DHT22;5620;53.570;9.718;2022-11-20T14:32:15;8.90;1.00
11132;DHT22;5620;53.570;9.718;2022-11-20T14:34:44;8.70;1.00
11132;DHT22;5620;53.570;9.718;2022-11-20T14:37:17;8.40;1.00
11132;DHT22;5620;53.570;9.718;2022-11-20T14:39:50;8.10;1.00
11132;DHT22;5620;53.570;9.718;2022-11-20T14:42:20;7.80;1.00
11132;DHT22;5620;53.570;9.718;2022-11-20T14:44:48;7.60;1.00
11132;DHT22;5620;53.570;9.718;2022-11-20T14:47:22;7.30;1.00
11132;DHT22;5620;53.570;9.718;2022-11-20T14:49:49;7.20;1.00
11132;DHT22;5620;53.570;9.718;2022-11-20T14:52:22;7.10;1.00
11132;DHT22;5620;53.570;9.718;2022-11-20T14:54:54;7.00;1.00
11132;DHT22;5620;53.570;9.718;2022-11-20T14:57:31;6.90;1.00
11132;DHT22;5620;53.570;9.718;2022-11-20T15:02:48;6.70;1.00
11132;DHT22;5620;53.570;9.718;2022-11-20T15:05:16;6.60;1.00
11132;DHT22;5620;53.570;9.718;2022-11-20T15:07:45;6.50;1.00
11132;DHT22;5620;53.570;9.718;2022-11-20T15:10:27;6.40;1.00
11132;DHT22;5620;53.570;9.718;2022-11-20T15:13:01;6.40;1.00
11132;DHT22;5620;53.570;9.718;2022-11-20T15:15:39;6.30;1.00
11132;DHT22;5620;53.570;9.718;2022-11-20T15:18:39;6.20;1.00
11132;DHT22;5620;53.570;9.718;2022-11-20T15:21:19;6.10;1.00
11132;DHT22;5620;53.570;9.718;2022-11-20T15:23:45;6.00;1.00
11132;DHT22;5620;53.570;9.718;2022-11-20T15:26:30;5.90;1.00
11132;DHT22;5620;53.570;9.718;2022-11-20T15:28:58;5.80;1.00
11132;DHT22;5620;53.570;9.718;2022-11-20T15:31:24;5.70;1.00
11132;DHT22;5620;53.570;9.718;2022-11-20T15:33:51;5.70;1.00
11132;DHT22;5620;53.570;9.718;2022-11-20T15:36:16;5.70;1.00
11132;DHT22;5620;53.570;9.718;2022-11-20T15:38:42;5.60;1.00
11132;DHT22;5620;53.570;9.718;2022-11-20T15:41:08;5.60;1.00
11132;DHT22;5620;53.570;9.718;2022-11-20T15:43:34;5.60;1.00
11132;DHT22;5620;53.570;9.718;2022-11-20T15:46:23;5.60;1.00
11132;DHT22;5620;53.570;9.718;2022-11-20T15:48:55;5.50;1.00
11132;DHT22;5620;53.570;9.718;2022-11-20T15:51:37;5.60;1.00
11132;DHT22;5620;53.570;9.718;2022-11-20T15:54:21;5.50;1.00
11132;DHT22;5620;53.570;9.718;2022-11-20T15:56:48;5.60;1.00
11132;DHT22;5620;53.570;9.718;2022-11-20T15:59:14;5.60;1.00
11132;DHT22;5620;53.570;9.718;2022-11-20T16:01:41;5.60;1.00
11132;DHT22;5620;53.570;9.718;2022-11-20T16:04:13;5.60;1.00
11132;DHT22;5620;53.570;9.718;2022-11-20T16:06:38;5.50;1.00
11132;DHT22;5620;53.570;9.718;2022-11-20T16:09:06;5.40;1.00
11132;DHT22;5620;53.570;9.718;2022-11-20T16:11:36;5.40;1.00
11132;DHT22;5620;53.570;9.718;2022-11-20T16:14:06;5.40;1.00
11132;DHT22;5620;53.570;9.718;2022-11-20T16:16:37;5.40;2.30
11132;DHT22;5620;53.570;9.718;2022-11-20T16:19:04;5.30;4.40
11132;DHT22;5620;53.570;9.718;2022-11-20T16:21:31;5.30;6.80
11132;DHT22;5620;53.570;9.718;2022-11-20T16:24:04;5.20;8.70
11132;DHT22;5620;53.570;9.718;2022-11-20T16:26:30;5.20;12.10
11132;DHT22;5620;53.570;9.718;2022-11-20T16:28:57;5.10;13.70
11132;DHT22;5620;53.570;9.718;2022-11-20T16:31:23;5.00;16.50
11132;DHT22;5620;53.570;9.718;2022-11-20T16:33:50;4.90;19.60
11132;DHT22;5620;53.570;9.718;2022-11-20T16:36:21;4.80;22.40
11132;DHT22;5620;53.570;9.718;2022-11-20T16:38:53;4.80;25.30
11132;DHT22;5620;53.570;9.718;2022-11-20T16:41:20;4.70;29.20
11132;DHT22;5620;53.570;9.718;2022-11-20T16:43:54;4.60;31.40
11132;DHT22;5620;53.570;9.718;2022-11-20T16:46:22;4.50;35.70
11132;DHT22;5620;53.570;9.718;2022-11-20T16:49:00;4.40;39.70
11132;DHT22;5620;53.570;9.718;2022-11-20T16:51:29;4.20;44.80
11132;DHT22;5620;53.570;9.718;2022-11-20T16:53:56;4.10;48.80
11132;DHT22;5620;53.570;9.718;2022-11-20T16:56:25;4.00;54.10
11132;DHT22;5620;53.570;9.718;2022-11-20T16:58:54;3.80;58.90
11132;DHT22;5620;53.570;9.718;2022-11-20T17:01:22;3.80;61.80
11132;DHT22;5620;53.570;9.718;2022-11-20T17:04:14;3.70;65.50
11132;DHT22;5620;53.570;9.718;2022-11-20T17:06:45;3.70;69.40
11132;DHT22;5620;53.570;9.718;2022-11-20T17:09:13;3.70;71.90
11132;DHT22;5620;53.570;9.718;2022-11-20T17:11:39;3.70;74.90
11132;DHT22;5620;53.570;9.718;2022-11-20T17:14:09;3.60;78.00
11132;DHT22;5620;53.570;9.718;2022-11-20T17:16:36;3.40;80.90
11132;DHT22;5620;53.570;9.718;2022-11-20T17:19:04;3.40;84.70
11132;DHT22;5620;53.570;9.718;2022-11-20T17:21:31;3.40;89.30
11132;DHT22;5620;53.570;9.718;2022-11-20T17:24:05;3.40;91.60
11132;DHT22;5620;53.570;9.718;2022-11-20T17:26:31;3.50;93.60
11132;DHT22;5620;53.570;9.718;2022-11-20T17:29:13;3.50;95.50
11132;DHT22;5620;53.570;9.718;2022-11-20T17:31:40;3.50;97.20
11132;DHT22;5620;53.570;9.718;2022-11-20T17:34:09;3.60;98.90
11132;DHT22;5620;53.570;9.718;2022-11-20T17:36:38;3.60;99.90
11132;DHT22;5620;53.570;9.718;2022-11-20T17:39:06;3.60;99.90
11132;DHT22;5620;53.570;9.718;2022-11-20T17:41:33;3.60;99.90
11132;DHT22;5620;53.570;9.718;2022-11-20T17:44:00;3.80;99.90
11132;DHT22;5620;53.570;9.718;2022-11-20T17:46:32;3.90;99.90
11132;DHT22;5620;53.570;9.718;2022-11-20T17:49:00;4.10;99.90
11132;DHT22;5620;53.570;9.718;2022-11-20T17:51:28;4.10;99.90
11132;DHT22;5620;53.570;9.718;2022-11-20T17:53:58;4.20;99.90
11132;DHT22;5620;53.570;9.718;2022-11-20T17:56:24;4.10;99.90
11132;DHT22;5620;53.570;9.718;2022-11-20T17:58:50;4.20;99.90
11132;DHT22;5620;53.570;9.718;2022-11-20T18:01:16;4.20;99.90